Terminal Aerodrome Forecast
Issued by NWS Lake Charles, LA

Home | Current Version | Previous Version | Text Only | Print | Product List | Glossary On
Versions: 1 2 3 4 5 6 7 8 9 10 11 12 13 14
585
FTUS44 KLCH 222327
TAFBPT
TAF
KBPT 222327Z 2300/2324 20007KT P6SM VCSH FEW035 SCT060 BKN110
     FM230200 20003KT P6SM SCT025 BKN250
     FM231400 24007KT P6SM VCTS SCT025CB BKN250 PROB30 2316/2322 2SM
      TSRA BKN025CB=

USA.gov is the U.S. government's official web portal to all federal, state and local government web resources and services.